createdAt,value
2023-03-29T00:03:00.950Z,231.66
2023-03-29T00:11:19.720Z,25.00
2023-03-29T00:15:19.737Z,25.00
2023-03-29T00:19:19.656Z,26.13
2023-03-29T00:23:19.655Z,27.59
2023-03-29T00:27:19.616Z,30.18
2023-03-29T00:31:19.604Z,29.72
2023-03-29T00:35:19.600Z,29.01
2023-03-29T00:39:19.489Z,30.48
2023-03-29T00:43:19.529Z,34.49
2023-03-29T00:47:19.434Z,31.67
2023-03-29T00:51:19.367Z,28.70
2023-03-29T00:55:19.324Z,32.44
2023-03-29T00:59:19.310Z,37.11
2023-03-29T01:03:19.351Z,37.68
2023-03-29T01:07:19.291Z,35.64
2023-03-29T01:11:19.212Z,33.70
2023-03-29T01:15:19.174Z,34.55
2023-03-29T01:19:19.164Z,32.45
2023-03-29T01:23:19.114Z,35.95
2023-03-29T01:27:19.094Z,34.29
2023-03-29T01:31:19.066Z,34.17
2023-03-29T01:35:18.993Z,36.45
2023-03-29T01:39:18.994Z,36.95
2023-03-29T01:43:18.930Z,34.74
2023-03-29T01:47:18.918Z,34.90
2023-03-29T01:51:18.954Z,33.90
2023-03-29T01:55:18.994Z,36.23
2023-03-29T01:59:19.008Z,30.88
2023-03-29T02:03:19.144Z,35.03
2023-03-29T02:07:19.106Z,33.76
2023-03-29T02:11:19.177Z,33.24
2023-03-29T02:15:19.234Z,31.30
2023-03-29T02:19:19.258Z,30.30
2023-03-29T02:23:19.371Z,30.77
2023-03-29T02:27:19.405Z,25.87
2023-03-29T02:31:19.519Z,31.95
2023-03-29T02:35:19.507Z,28.88
2023-03-29T02:39:19.567Z,28.96
2023-03-29T02:43:19.662Z,32.32
2023-03-29T02:47:19.702Z,31.17
2023-03-29T02:51:20.351Z,29.63
2023-03-29T02:55:19.851Z,34.70
2023-03-29T02:59:19.926Z,35.00
2023-03-29T03:03:20.102Z,32.60
2023-03-29T03:07:20.103Z,33.89
2023-03-29T03:11:20.205Z,32.87
2023-03-29T03:15:20.299Z,30.38
2023-03-29T03:19:20.382Z,32.51
2023-03-29T03:23:20.460Z,37.28
2023-03-29T03:27:20.577Z,34.45
2023-03-29T03:31:20.688Z,40.45
2023-03-29T03:47:21.021Z,34.64
2023-03-29T03:51:21.153Z,37.51
2023-03-29T03:59:21.300Z,41.97
2023-03-29T04:03:21.426Z,35.08
2023-03-29T04:07:21.382Z,21.24
2023-03-29T04:11:21.488Z,25.00
2023-03-29T04:15:21.539Z,26.24
2023-03-29T04:19:21.940Z,25.00
2023-03-29T04:23:21.774Z,25.34
2023-03-29T04:27:21.903Z,29.91
2023-03-29T04:31:22.040Z,42.77
2023-03-29T04:35:22.064Z,61.51
2023-03-29T04:39:22.220Z,68.75
2023-03-29T04:43:22.344Z,77.56
2023-03-29T04:47:22.556Z,84.51
2023-03-29T04:51:22.692Z,85.69
2023-03-29T04:55:22.853Z,89.77
2023-03-29T04:59:23.067Z,91.96
2023-03-29T05:03:23.158Z,96.47
2023-03-29T05:07:23.336Z,99.09
2023-03-29T05:11:23.436Z,98.82
2023-03-29T05:23:23.954Z,97.52
2023-03-29T09:04:03.302Z,25.00
2023-03-29T09:08:03.182Z,34.64
2023-03-29T09:12:03.171Z,35.05
2023-03-29T09:16:03.141Z,27.81
2023-03-29T09:20:03.114Z,44.79
2023-03-29T09:24:03.494Z,33.59
2023-03-29T09:28:03.074Z,28.79
2023-03-29T09:32:03.514Z,38.16
2023-03-29T09:36:03.012Z,43.24
2023-03-29T09:40:05.112Z,42.64
2023-03-29T09:44:03.321Z,39.35
2023-03-29T09:48:03.211Z,34.59
2023-03-29T09:52:03.327Z,30.89
2023-03-29T09:56:03.469Z,32.55
2023-03-29T10:00:03.642Z,27.20
2023-03-29T10:04:06.057Z,25.25
2023-03-29T10:08:03.894Z,40.25
2023-03-29T10:12:04.530Z,41.95
2023-03-29T10:16:04.202Z,27.33
2023-03-29T10:20:04.663Z,38.81
2023-03-29T10:24:04.421Z,25.40
2023-03-29T10:28:04.558Z,12.90
2023-03-29T10:32:04.785Z,12.90
2023-03-29T10:36:04.637Z,64.83
2023-03-29T11:52:04.170Z,27.84
2023-03-29T13:00:04.841Z,239.39
2023-03-29T13:04:05.055Z,242.65
2023-03-29T13:08:05.209Z,241.66
2023-03-29T13:12:05.336Z,240.96
2023-03-29T13:16:05.796Z,239.31
2023-03-29T13:20:05.494Z,242.58
2023-03-29T13:24:05.498Z,245.31
2023-03-29T14:10:05.966Z,25.00
2023-03-29T14:14:07.079Z,33.66
2023-03-29T14:18:06.056Z,29.06
2023-03-29T14:22:05.834Z,33.23
2023-03-29T14:26:05.830Z,30.65
2023-03-29T14:30:05.746Z,25.00
2023-03-29T14:34:05.737Z,26.42
2023-03-29T14:38:05.756Z,25.98
2023-03-29T14:42:05.661Z,29.90
2023-03-29T14:46:05.824Z,34.58
2023-03-29T14:50:05.601Z,32.02
2023-03-29T14:54:05.571Z,33.82
2023-03-29T14:58:05.578Z,28.80
2023-03-29T15:01:27.351Z,25.00
2023-03-29T15:02:27.452Z,25.00
2023-03-29T15:03:27.419Z,25.00
2023-03-29T15:04:27.296Z,25.00
2023-03-29T15:05:27.300Z,25.00
2023-03-29T15:06:27.332Z,25.00
2023-03-29T15:07:27.297Z,25.90
2023-03-29T15:08:27.275Z,27.43
2023-03-29T15:09:27.277Z,27.47
2023-03-29T15:10:27.258Z,28.07
2023-03-29T15:11:27.244Z,26.86
2023-03-29T15:12:27.214Z,34.76
2023-03-29T15:13:27.235Z,25.00
2023-03-29T15:14:27.282Z,33.56
2023-03-29T15:15:27.304Z,39.06
2023-03-29T15:16:27.303Z,37.49
2023-03-29T15:17:33.524Z,23.91
2023-03-29T15:18:28.244Z,24.22
2023-03-29T15:19:27.206Z,24.91
2023-03-29T15:20:27.237Z,16.27
2023-03-29T15:21:27.193Z,17.15
2023-03-29T15:22:27.177Z,17.90
2023-03-29T15:23:27.143Z,25.00
2023-03-29T15:24:27.172Z,28.82
2023-03-29T15:25:27.160Z,30.06
2023-03-29T15:26:27.128Z,25.55
2023-03-29T15:27:27.133Z,29.50
2023-03-29T15:28:27.093Z,30.79
2023-03-29T15:29:27.165Z,36.16
2023-03-29T15:30:27.080Z,29.08
2023-03-29T15:31:27.145Z,25.00
2023-03-29T15:32:27.255Z,31.19
2023-03-29T15:33:27.204Z,30.51
2023-03-29T15:34:27.132Z,35.63
2023-03-29T15:35:27.125Z,36.00
2023-03-29T15:36:27.132Z,26.11
2023-03-29T15:37:27.055Z,42.20
2023-03-29T15:38:36.703Z,51.56
2023-03-29T15:39:28.498Z,37.87
2023-03-29T15:40:27.186Z,47.06
2023-03-29T15:41:27.099Z,51.60
2023-03-29T15:42:27.089Z,58.16
2023-03-29T15:43:27.054Z,65.56
2023-03-29T15:44:27.096Z,74.17
2023-03-29T15:45:27.068Z,78.83
2023-03-29T15:46:27.116Z,79.77
2023-03-29T15:47:27.068Z,92.17
2023-03-29T15:48:27.038Z,92.87
2023-03-29T15:49:26.991Z,96.73
2023-03-29T15:50:26.996Z,99.04
2023-03-29T15:51:27.000Z,100.14
2023-03-29T15:52:27.035Z,111.15
2023-03-29T15:53:27.005Z,112.80
2023-03-29T15:54:26.953Z,112.73
2023-03-29T15:55:26.988Z,112.50
2023-03-29T15:56:26.994Z,120.93
2023-03-29T15:57:27.139Z,117.15
2023-03-29T15:58:26.939Z,121.58
2023-03-29T15:59:26.945Z,123.16
2023-03-29T16:00:26.960Z,129.80
2023-03-29T16:01:27.039Z,134.31
2023-03-29T16:02:27.026Z,134.97
2023-03-29T16:03:26.901Z,125.87
2023-03-29T16:04:26.906Z,138.36
2023-03-29T16:05:26.882Z,134.24
2023-03-29T16:06:26.880Z,136.61
2023-03-29T16:07:26.864Z,138.27
2023-03-29T16:08:26.860Z,140.64
2023-03-29T16:09:26.841Z,142.51
2023-03-29T16:10:27.024Z,139.47
2023-03-29T16:11:26.878Z,143.69
2023-03-29T16:12:26.845Z,146.89
2023-03-29T16:13:26.808Z,146.52
2023-03-29T16:14:26.791Z,150.98
2023-03-29T16:15:26.804Z,150.19
2023-03-29T16:16:26.880Z,150.30
2023-03-29T16:17:26.854Z,153.77
2023-03-29T16:18:26.822Z,152.13
2023-03-29T16:19:26.798Z,156.00
2023-03-29T16:20:26.777Z,151.16
2023-03-29T16:21:26.777Z,157.08
2023-03-29T16:22:26.749Z,158.70
2023-03-29T16:23:26.745Z,162.82
2023-03-29T16:24:26.747Z,160.01
2023-03-29T16:25:26.714Z,159.08
2023-03-29T16:26:26.738Z,160.65
2023-03-29T16:27:26.721Z,154.78
2023-03-29T16:28:26.733Z,159.61
2023-03-29T16:29:26.703Z,158.96
2023-03-29T16:30:26.698Z,159.52
2023-03-29T16:31:26.728Z,164.70
2023-03-29T16:32:26.785Z,165.02
2023-03-29T16:33:26.667Z,166.89
2023-03-29T16:34:26.648Z,165.36
2023-03-29T16:35:26.635Z,172.86
2023-03-29T16:36:26.724Z,170.23
2023-03-29T16:37:26.638Z,170.72
2023-03-29T16:38:26.614Z,176.34
2023-03-29T16:39:26.653Z,172.37
2023-03-29T16:40:26.599Z,169.91
2023-03-29T16:41:26.632Z,177.57
2023-03-29T16:42:26.607Z,176.20
2023-03-29T16:43:26.573Z,176.67
2023-03-29T16:44:26.589Z,181.16
2023-03-29T16:45:26.594Z,182.30
2023-03-29T16:46:27.113Z,181.60
2023-03-29T16:47:26.574Z,184.45
2023-03-29T16:48:26.582Z,186.38
2023-03-29T16:49:26.568Z,187.61
2023-03-29T16:50:26.597Z,186.46
2023-03-29T16:51:26.574Z,186.69
2023-03-29T16:52:26.518Z,185.02
2023-03-29T16:53:26.546Z,187.09
2023-03-29T16:54:26.518Z,188.29
2023-03-29T16:55:26.500Z,186.88
2023-03-29T16:56:26.501Z,190.54
2023-03-29T16:57:26.595Z,186.34
2023-03-29T16:58:26.470Z,190.86
2023-03-29T16:59:26.465Z,190.20
2023-03-29T17:00:26.442Z,189.28
2023-03-29T17:01:26.458Z,190.07
2023-03-29T17:02:26.516Z,189.32
2023-03-29T17:03:26.396Z,188.32
2023-03-29T17:04:26.500Z,190.93
2023-03-29T17:05:26.440Z,190.52
2023-03-29T17:06:26.436Z,192.84
2023-03-29T17:07:26.436Z,193.01
2023-03-29T17:08:26.431Z,191.59
2023-03-29T17:09:28.363Z,193.76
2023-03-29T17:10:26.403Z,195.28
2023-03-29T17:11:26.436Z,194.17
2023-03-29T17:12:26.384Z,194.18
2023-03-29T17:13:26.363Z,193.49
2023-03-29T17:14:26.383Z,190.41
2023-03-29T17:15:26.357Z,194.80
2023-03-29T17:16:26.377Z,195.61
2023-03-29T17:17:26.420Z,194.82
2023-03-29T17:18:26.346Z,197.83
2023-03-29T17:19:26.364Z,195.43
2023-03-29T17:20:26.333Z,199.61
2023-03-29T17:21:26.292Z,199.44
2023-03-29T17:22:26.317Z,196.44
2023-03-29T17:23:26.294Z,196.05
2023-03-29T17:24:26.272Z,200.22
2023-03-29T17:25:26.312Z,197.64
2023-03-29T17:26:26.312Z,200.88
2023-03-29T17:27:26.257Z,200.42
2023-03-29T17:28:26.252Z,199.35
2023-03-29T17:29:26.293Z,201.93
2023-03-29T17:30:26.248Z,202.11
2023-03-29T17:31:26.363Z,203.94
2023-03-29T17:32:26.261Z,204.80
2023-03-29T17:33:26.350Z,202.96
2023-03-29T17:34:26.206Z,205.24
2023-03-29T17:35:26.214Z,201.78
2023-03-29T17:36:26.250Z,201.04
2023-03-29T17:37:26.194Z,204.05
2023-03-29T17:38:26.182Z,204.29
2023-03-29T17:39:26.181Z,204.31
2023-03-29T17:40:26.181Z,204.03
2023-03-29T17:41:26.602Z,203.03
2023-03-29T17:42:26.166Z,203.70
2023-03-29T17:43:26.165Z,206.68
2023-03-29T17:44:26.162Z,211.45
2023-03-29T17:45:26.183Z,217.17
2023-03-29T17:46:26.171Z,217.09
2023-03-29T17:47:26.163Z,229.28
2023-03-29T17:48:26.145Z,224.15
2023-03-29T17:49:26.141Z,224.58
2023-03-29T17:50:26.117Z,227.80
2023-03-29T17:51:26.114Z,229.27
2023-03-29T17:52:26.081Z,229.47
2023-03-29T17:53:26.076Z,227.58
2023-03-29T17:54:26.073Z,224.96
2023-03-29T17:55:26.055Z,220.28
2023-03-29T17:56:26.046Z,227.37
2023-03-29T17:57:26.096Z,220.78
2023-03-29T17:58:26.068Z,222.88
2023-03-29T17:59:26.038Z,220.54
2023-03-29T18:00:26.114Z,222.92
2023-03-29T18:01:26.183Z,216.96
2023-03-29T18:02:26.147Z,220.24
2023-03-29T18:03:26.030Z,217.47
2023-03-29T18:04:25.980Z,217.13
2023-03-29T18:05:26.080Z,215.51
2023-03-29T18:06:26.022Z,217.24
2023-03-29T18:07:25.988Z,216.87
2023-03-29T18:08:25.969Z,216.05
2023-03-29T18:09:27.034Z,218.53
2023-03-29T18:10:25.933Z,217.55
2023-03-29T18:11:25.934Z,218.61
2023-03-29T18:12:25.953Z,215.66
2023-03-29T18:13:25.948Z,215.86
2023-03-29T18:14:25.904Z,216.41
2023-03-29T18:15:25.940Z,212.78
2023-03-29T18:16:26.005Z,213.31
2023-03-29T18:17:25.979Z,213.83
2023-03-29T18:18:26.002Z,215.55
2023-03-29T18:19:25.864Z,213.30
2023-03-29T18:20:25.872Z,215.55
2023-03-29T18:21:25.922Z,212.84
2023-03-29T18:22:25.853Z,213.57
2023-03-29T18:23:25.863Z,212.27
2023-03-29T18:24:25.835Z,211.76
2023-03-29T18:25:25.874Z,211.99
2023-03-29T18:26:25.810Z,213.20
2023-03-29T18:27:25.848Z,210.09
2023-03-29T18:28:26.073Z,213.39
2023-03-29T18:29:25.841Z,212.55
2023-03-29T18:30:25.931Z,211.68
2023-03-29T18:31:25.942Z,213.23
2023-03-29T18:32:26.021Z,211.57
2023-03-29T18:33:25.914Z,211.75
2023-03-29T18:34:25.938Z,213.83
2023-03-29T18:35:25.950Z,213.04
2023-03-29T18:36:25.960Z,209.82
2023-03-29T18:37:25.971Z,208.64
2023-03-29T18:38:25.963Z,211.41
2023-03-29T18:39:25.959Z,208.90
2023-03-29T18:40:26.012Z,211.91
2023-03-29T18:41:26.046Z,211.66
2023-03-29T18:42:26.016Z,211.20
2023-03-29T18:43:26.063Z,209.39
2023-03-29T18:44:26.061Z,210.77
2023-03-29T18:45:26.072Z,214.79
2023-03-29T18:46:26.120Z,212.67
2023-03-29T18:47:26.148Z,211.06
2023-03-29T18:48:26.616Z,206.81
2023-03-29T18:49:26.101Z,207.09
2023-03-29T18:50:26.164Z,212.48
2023-03-29T18:51:26.078Z,210.78
2023-03-29T18:52:26.148Z,211.78
2023-03-29T18:53:26.120Z,208.34
2023-03-29T18:54:26.122Z,208.73
2023-03-29T18:55:26.100Z,212.38
2023-03-29T18:56:26.152Z,209.01
2023-03-29T18:57:26.181Z,207.58
2023-03-29T18:58:26.195Z,208.21
2023-03-29T18:59:26.165Z,208.80
2023-03-29T19:00:26.193Z,207.13
2023-03-29T19:01:26.267Z,203.09
2023-03-29T19:02:26.254Z,209.93
2023-03-29T19:03:26.297Z,205.75
2023-03-29T19:04:26.995Z,204.75
2023-03-29T19:05:26.201Z,210.32
2023-03-29T19:06:26.219Z,208.21
2023-03-29T19:07:26.214Z,211.29
2023-03-29T19:08:26.247Z,207.16
2023-03-29T19:09:26.235Z,204.56
2023-03-29T19:10:26.288Z,204.43
2023-03-29T19:11:28.412Z,200.03
2023-03-29T19:12:26.215Z,204.39
2023-03-29T19:13:26.263Z,202.79
2023-03-29T19:14:26.306Z,204.98
2023-03-29T19:15:26.300Z,201.56
2023-03-29T19:16:26.280Z,208.16
2023-03-29T19:17:26.248Z,208.00
2023-03-29T19:18:26.184Z,204.97
2023-03-29T19:19:26.172Z,201.25
2023-03-29T19:20:26.178Z,202.49
2023-03-29T19:21:26.205Z,200.26
2023-03-29T19:22:26.160Z,200.18
2023-03-29T19:23:26.163Z,196.04
2023-03-29T19:24:26.169Z,199.23
2023-03-29T19:25:26.146Z,194.34
2023-03-29T19:26:26.194Z,196.55
2023-03-29T19:27:26.142Z,197.27
2023-03-29T19:28:26.134Z,198.05
2023-03-29T19:29:26.112Z,197.68
2023-03-29T19:30:26.136Z,201.72
2023-03-29T19:31:26.168Z,195.41
2023-03-29T19:32:26.214Z,195.61
2023-03-29T19:33:26.107Z,194.57
2023-03-29T19:34:26.069Z,196.09
2023-03-29T19:35:26.075Z,197.54
2023-03-29T19:36:26.114Z,190.93
2023-03-29T19:37:26.047Z,193.55
2023-03-29T19:38:26.059Z,197.80
2023-03-29T19:39:26.068Z,194.40
2023-03-29T19:40:26.029Z,193.33
2023-03-29T19:41:26.043Z,193.50
2023-03-29T19:42:26.015Z,193.62
2023-03-29T19:43:26.023Z,192.72
2023-03-29T19:44:26.075Z,193.36
2023-03-29T19:45:26.030Z,186.91
2023-03-29T19:46:26.039Z,196.04
2023-03-29T19:47:25.990Z,195.46
2023-03-29T19:48:25.982Z,188.33
2023-03-29T19:49:25.983Z,190.26
2023-03-29T19:50:25.996Z,187.51
2023-03-29T19:51:25.990Z,189.09
2023-03-29T19:52:26.007Z,190.54
2023-03-29T19:53:25.957Z,187.17
2023-03-29T19:54:25.918Z,189.28
2023-03-29T19:55:25.950Z,190.22
2023-03-29T19:56:25.925Z,188.54
2023-03-29T19:57:25.918Z,189.57
2023-03-29T19:58:25.918Z,188.81
2023-03-29T19:59:25.912Z,188.42
2023-03-29T20:00:25.901Z,187.66
2023-03-29T20:01:26.006Z,187.29
2023-03-29T20:02:25.889Z,187.07
2023-03-29T20:03:25.921Z,188.21
2023-03-29T20:04:25.959Z,190.30
2023-03-29T20:05:25.859Z,187.27
2023-03-29T20:06:25.862Z,189.77
2023-03-29T20:07:25.838Z,188.73
2023-03-29T20:08:25.844Z,185.23
2023-03-29T20:09:25.856Z,186.10
2023-03-29T20:10:25.823Z,187.81
2023-03-29T20:11:25.819Z,187.72
2023-03-29T20:12:25.834Z,185.13
2023-03-29T20:13:37.414Z,183.49
2023-03-29T20:14:26.840Z,183.78
2023-03-29T20:15:25.798Z,184.88
2023-03-29T20:16:25.848Z,185.27
2023-03-29T20:17:25.851Z,187.34
2023-03-29T20:18:25.781Z,188.23
2023-03-29T20:19:25.777Z,188.73
2023-03-29T20:20:25.760Z,189.91
2023-03-29T20:21:25.724Z,187.91
2023-03-29T20:22:25.796Z,187.49
2023-03-29T20:23:25.753Z,184.73
2023-03-29T20:24:25.868Z,186.46
2023-03-29T20:25:25.769Z,185.60
2023-03-29T20:26:25.729Z,188.80
2023-03-29T20:27:25.731Z,184.82
2023-03-29T20:28:25.746Z,182.21
2023-03-29T20:29:25.693Z,182.36
2023-03-29T20:30:25.766Z,182.80
2023-03-29T20:31:25.696Z,182.36
2023-03-29T20:32:25.784Z,185.63
2023-03-29T20:33:25.672Z,180.17
2023-03-29T20:34:25.664Z,182.15
2023-03-29T20:35:25.678Z,182.90
2023-03-29T20:36:25.745Z,181.89
2023-03-29T20:37:25.659Z,182.24
2023-03-29T20:38:25.652Z,182.34
2023-03-29T20:39:26.063Z,183.13
2023-03-29T20:40:25.611Z,179.60
2023-03-29T20:41:25.622Z,185.31
2023-03-29T20:42:25.619Z,181.60
2023-03-29T20:43:25.619Z,179.26
2023-03-29T20:44:25.581Z,179.29
2023-03-29T20:45:25.592Z,181.86
2023-03-29T20:46:25.624Z,181.42
2023-03-29T20:47:25.669Z,179.33
2023-03-29T20:48:25.557Z,182.81
2023-03-29T20:49:25.559Z,180.25
2023-03-29T20:50:25.552Z,181.33
2023-03-29T20:51:25.529Z,180.65
2023-03-29T20:52:25.570Z,183.88
2023-03-29T20:53:25.538Z,183.31
2023-03-29T20:54:25.551Z,184.27
2023-03-29T20:55:25.554Z,180.26
2023-03-29T20:56:25.559Z,179.69
2023-03-29T20:57:25.633Z,181.61
2023-03-29T20:58:25.573Z,178.26
2023-03-29T20:59:25.590Z,180.00
2023-03-29T21:00:25.586Z,182.04
2023-03-29T21:01:25.640Z,179.17
2023-03-29T21:02:25.750Z,178.07
2023-03-29T21:03:25.740Z,181.62
2023-03-29T21:04:25.665Z,179.10
2023-03-29T21:05:25.681Z,176.71
2023-03-29T21:06:25.739Z,176.35
2023-03-29T21:07:25.687Z,182.03
2023-03-29T21:08:25.699Z,183.22
2023-03-29T21:09:25.703Z,175.31
2023-03-29T21:10:25.706Z,179.05
2023-03-29T21:11:26.131Z,176.88
2023-03-29T21:12:25.779Z,177.91
2023-03-29T21:13:25.729Z,180.29
2023-03-29T21:14:25.751Z,175.81
2023-03-29T21:15:25.751Z,176.97
2023-03-29T21:16:25.832Z,177.82
2023-03-29T21:17:25.861Z,175.89
2023-03-29T21:18:25.811Z,176.68
2023-03-29T21:19:25.830Z,175.39
2023-03-29T21:20:25.871Z,178.42
2023-03-29T21:21:25.837Z,180.90
2023-03-29T21:22:25.837Z,179.74
2023-03-29T21:23:25.845Z,179.30
2023-03-29T21:24:25.856Z,175.73
2023-03-29T21:25:25.868Z,175.73
2023-03-29T21:26:25.871Z,177.15
2023-03-29T21:27:25.883Z,175.70
2023-03-29T21:28:25.927Z,177.00
2023-03-29T21:29:25.902Z,174.77
2023-03-29T21:30:25.951Z,176.11
2023-03-29T21:31:25.973Z,173.26
2023-03-29T21:32:25.977Z,174.01
2023-03-29T21:33:26.123Z,177.85
2023-03-29T21:34:26.111Z,178.05
2023-03-29T21:35:25.981Z,178.37
2023-03-29T21:36:25.996Z,172.30
2023-03-29T21:37:26.093Z,175.27
2023-03-29T21:38:25.990Z,179.14
2023-03-29T21:39:26.007Z,175.17
2023-03-29T21:40:25.985Z,177.43
2023-03-29T21:41:26.021Z,174.95
2023-03-29T21:42:26.019Z,176.95
2023-03-29T21:43:26.051Z,174.16
2023-03-29T21:44:26.033Z,173.01
2023-03-29T21:45:26.051Z,177.27
2023-03-29T21:46:26.104Z,176.82
2023-03-29T21:47:26.091Z,179.11
2023-03-29T21:48:26.074Z,174.61
2023-03-29T21:49:26.074Z,170.48
2023-03-29T21:50:26.079Z,175.60
2023-03-29T21:51:26.083Z,172.38
2023-03-29T21:52:26.083Z,172.34
2023-03-29T21:53:26.106Z,175.82
2023-03-29T21:54:26.101Z,171.40
2023-03-29T21:55:26.111Z,171.07
2023-03-29T21:56:26.128Z,170.98
2023-03-29T21:57:26.195Z,173.99
2023-03-29T21:58:26.133Z,171.05
2023-03-29T21:59:26.147Z,173.35
2023-03-29T22:00:26.147Z,175.36
2023-03-29T22:01:26.254Z,173.70
2023-03-29T22:02:26.283Z,172.15
2023-03-29T22:03:26.278Z,174.63
2023-03-29T22:04:35.840Z,173.00
2023-03-29T22:05:27.263Z,173.18
2023-03-29T22:06:26.242Z,173.42
2023-03-29T22:07:26.256Z,173.29
2023-03-29T22:08:26.283Z,174.60
2023-03-29T22:09:26.238Z,173.28
2023-03-29T22:10:26.223Z,169.86
2023-03-29T22:11:26.182Z,171.80
2023-03-29T22:12:26.193Z,172.37
2023-03-29T22:13:26.192Z,174.16
2023-03-29T22:14:26.206Z,174.85
2023-03-29T22:15:26.164Z,173.71
2023-03-29T22:16:26.177Z,172.15
2023-03-29T22:17:26.173Z,172.06
2023-03-29T22:18:26.168Z,173.92
2023-03-29T22:19:26.115Z,168.59
2023-03-29T22:20:26.133Z,170.66
2023-03-29T22:21:26.130Z,171.26
2023-03-29T22:22:26.096Z,174.75
2023-03-29T22:23:26.139Z,168.36
2023-03-29T22:24:26.111Z,172.27
2023-03-29T22:25:26.060Z,170.42
2023-03-29T22:26:26.069Z,172.38
2023-03-29T22:27:26.068Z,170.25
2023-03-29T22:28:26.096Z,172.64
2023-03-29T22:29:26.088Z,173.71
2023-03-29T22:30:26.066Z,173.72
2023-03-29T22:31:26.188Z,170.34
2023-03-29T22:32:26.200Z,171.15
2023-03-29T22:33:26.173Z,172.39
2023-03-29T22:34:26.175Z,169.49
2023-03-29T22:35:26.180Z,169.79
2023-03-29T22:36:26.196Z,173.17
2023-03-29T22:37:26.243Z,170.51
2023-03-29T22:38:26.255Z,170.05
2023-03-29T22:39:26.254Z,170.11
2023-03-29T22:40:26.267Z,168.67
2023-03-29T22:41:26.338Z,167.98
2023-03-29T22:42:26.340Z,170.56
2023-03-29T22:43:26.342Z,169.40
2023-03-29T22:44:26.337Z,167.87
2023-03-29T22:45:26.461Z,167.90
2023-03-29T22:46:26.514Z,170.59
2023-03-29T22:47:26.427Z,169.55
2023-03-29T22:48:26.423Z,169.29
2023-03-29T22:49:26.432Z,168.36
2023-03-29T22:50:26.450Z,167.50
2023-03-29T22:51:26.433Z,171.22
2023-03-29T22:52:26.467Z,166.54
2023-03-29T22:53:26.468Z,169.68
2023-03-29T22:54:26.521Z,172.27
2023-03-29T22:55:26.506Z,168.10
2023-03-29T22:56:26.576Z,169.58
2023-03-29T22:57:26.649Z,167.74
2023-03-29T22:58:26.602Z,169.09
2023-03-29T22:59:26.610Z,168.38
2023-03-29T23:00:26.600Z,171.08
2023-03-29T23:01:26.649Z,168.41
2023-03-29T23:02:26.695Z,169.07
2023-03-29T23:03:26.683Z,169.16
2023-03-29T23:04:26.722Z,168.94
2023-03-29T23:05:26.742Z,168.72
2023-03-29T23:06:26.744Z,164.02
2023-03-29T23:07:26.767Z,167.95
2023-03-29T23:08:26.767Z,168.04
2023-03-29T23:09:26.812Z,164.76
2023-03-29T23:10:26.832Z,168.98
2023-03-29T23:11:26.847Z,170.45
2023-03-29T23:12:26.841Z,170.42
2023-03-29T23:13:26.895Z,170.94
2023-03-29T23:14:26.930Z,171.42
2023-03-29T23:15:28.399Z,168.79
2023-03-29T23:16:26.981Z,166.22
2023-03-29T23:17:26.936Z,168.13
2023-03-29T23:18:26.919Z,169.97
2023-03-29T23:19:26.924Z,171.96
2023-03-29T23:20:26.886Z,167.59
2023-03-29T23:21:26.896Z,166.64
2023-03-29T23:22:26.876Z,167.88
2023-03-29T23:23:26.939Z,170.49
2023-03-29T23:24:26.868Z,165.75
2023-03-29T23:25:26.863Z,167.98
2023-03-29T23:26:26.883Z,163.75
2023-03-29T23:27:26.849Z,166.32
2023-03-29T23:28:26.845Z,167.14
2023-03-29T23:29:26.842Z,167.87
2023-03-29T23:30:26.801Z,164.98
2023-03-29T23:31:26.824Z,167.22
2023-03-29T23:32:26.794Z,162.02
2023-03-29T23:33:26.837Z,165.06
2023-03-29T23:34:26.830Z,165.78
2023-03-29T23:35:26.799Z,166.01
2023-03-29T23:36:26.797Z,164.42
2023-03-29T23:37:26.766Z,165.72
2023-03-29T23:38:26.759Z,170.19
2023-03-29T23:39:26.766Z,165.54
2023-03-29T23:40:26.766Z,165.73
2023-03-29T23:41:26.725Z,164.00
2023-03-29T23:42:26.741Z,166.02
2023-03-29T23:43:26.715Z,167.01
2023-03-29T23:44:26.748Z,162.81
2023-03-29T23:45:26.719Z,169.34
2023-03-29T23:46:26.726Z,164.68
2023-03-29T23:47:26.747Z,164.03
2023-03-29T23:48:26.753Z,168.61
2023-03-29T23:49:26.678Z,166.18
2023-03-29T23:50:26.680Z,161.53
2023-03-29T23:51:26.690Z,165.11
2023-03-29T23:52:26.706Z,163.23
2023-03-29T23:53:26.654Z,162.40
2023-03-29T23:54:26.635Z,165.92
2023-03-29T23:55:26.663Z,168.17
2023-03-29T23:56:26.618Z,162.16
2023-03-29T23:57:26.665Z,163.88
2023-03-29T23:58:26.629Z,163.82
2023-03-29T23:59:26.651Z,165.06
